sensor_id;sensor_type;location;lat;lon;timestamp;P1;durP1;ratioP1;P2;durP2;ratioP2
18899;SDS011;9582;52.018;6.306;2022-08-11T00:02:15;5.13;;;3.50;;
18899;SDS011;9582;52.018;6.306;2022-08-11T00:04:51;4.10;;;3.10;;
18899;SDS011;9582;52.018;6.306;2022-08-11T00:07:20;4.75;;;3.03;;
18899;SDS011;9582;52.018;6.306;2022-08-11T00:09:49;4.60;;;3.40;;
18899;SDS011;9582;52.018;6.306;2022-08-11T00:12:16;4.00;;;3.15;;
18899;SDS011;9582;52.018;6.306;2022-08-11T00:14:43;4.28;;;3.47;;
18899;SDS011;9582;52.018;6.306;2022-08-11T00:17:12;4.28;;;3.40;;
18899;SDS011;9582;52.018;6.306;2022-08-11T00:19:41;4.40;;;3.60;;
18899;SDS011;9582;52.018;6.306;2022-08-11T00:22:10;4.50;;;3.58;;
18899;SDS011;9582;52.018;6.306;2022-08-11T00:24:44;6.03;;;3.95;;
18899;SDS011;9582;52.018;6.306;2022-08-11T00:27:13;3.55;;;3.15;;
18899;SDS011;9582;52.018;6.306;2022-08-11T00:29:40;3.95;;;3.60;;
18899;SDS011;9582;52.018;6.306;2022-08-11T00:32:06;6.57;;;3.30;;
18899;SDS011;9582;52.018;6.306;2022-08-11T00:34:40;4.88;;;3.45;;
18899;SDS011;9582;52.018;6.306;2022-08-11T00:37:16;5.55;;;3.70;;
18899;SDS011;9582;52.018;6.306;2022-08-11T00:39:46;5.03;;;3.80;;
18899;SDS011;9582;52.018;6.306;2022-08-11T00:42:30;6.07;;;3.92;;
18899;SDS011;9582;52.018;6.306;2022-08-11T00:45:09;9.50;;;3.83;;
18899;SDS011;9582;52.018;6.306;2022-08-11T00:47:44;4.88;;;3.70;;
18899;SDS011;9582;52.018;6.306;2022-08-11T00:50:23;5.30;;;4.05;;
18899;SDS011;9582;52.018;6.306;2022-08-11T00:55:58;7.60;;;3.92;;
18899;SDS011;9582;52.018;6.306;2022-08-11T01:01:58;5.55;;;4.10;;
18899;SDS011;9582;52.018;6.306;2022-08-11T01:07:49;7.13;;;3.80;;
18899;SDS011;9582;52.018;6.306;2022-08-11T01:10:53;7.60;;;4.50;;
18899;SDS011;9582;52.018;6.306;2022-08-11T01:13:41;4.63;;;3.72;;
18899;SDS011;9582;52.018;6.306;2022-08-11T01:16:56;6.05;;;3.65;;
18899;SDS011;9582;52.018;6.306;2022-08-11T01:19:45;6.22;;;3.70;;
18899;SDS011;9582;52.018;6.306;2022-08-11T01:22:37;5.90;;;3.95;;
18899;SDS011;9582;52.018;6.306;2022-08-11T01:25:49;7.13;;;4.50;;
18899;SDS011;9582;52.018;6.306;2022-08-11T01:28:56;4.47;;;4.07;;
18899;SDS011;9582;52.018;6.306;2022-08-11T01:32:01;6.35;;;4.57;;
18899;SDS011;9582;52.018;6.306;2022-08-11T01:35:19;8.10;;;4.40;;
18899;SDS011;9582;52.018;6.306;2022-08-11T01:40:58;6.15;;;4.85;;
18899;SDS011;9582;52.018;6.306;2022-08-11T01:46:53;6.18;;;4.30;;
18899;SDS011;9582;52.018;6.306;2022-08-11T01:49:34;5.05;;;4.55;;
18899;SDS011;9582;52.018;6.306;2022-08-11T01:52:10;5.20;;;4.38;;
18899;SDS011;9582;52.018;6.306;2022-08-11T01:54:43;4.63;;;4.18;;
18899;SDS011;9582;52.018;6.306;2022-08-11T01:57:19;6.57;;;4.38;;
18899;SDS011;9582;52.018;6.306;2022-08-11T02:00:00;6.97;;;4.60;;
18899;SDS011;9582;52.018;6.306;2022-08-11T02:02:36;6.40;;;4.18;;
18899;SDS011;9582;52.018;6.306;2022-08-11T02:05:34;4.45;;;3.95;;
18899;SDS011;9582;52.018;6.306;2022-08-11T02:08:13;5.78;;;4.70;;
18899;SDS011;9582;52.018;6.306;2022-08-11T02:10:53;5.72;;;4.15;;
18899;SDS011;9582;52.018;6.306;2022-08-11T02:13:39;4.82;;;4.40;;
18899;SDS011;9582;52.018;6.306;2022-08-11T02:16:16;5.47;;;4.32;;
18899;SDS011;9582;52.018;6.306;2022-08-11T02:18:54;5.50;;;4.68;;
18899;SDS011;9582;52.018;6.306;2022-08-11T02:21:49;7.28;;;5.03;;
18899;SDS011;9582;52.018;6.306;2022-08-11T02:24:46;6.20;;;4.78;;
18899;SDS011;9582;52.018;6.306;2022-08-11T02:27:19;5.78;;;4.85;;
18899;SDS011;9582;52.018;6.306;2022-08-11T02:29:53;7.65;;;4.93;;
18899;SDS011;9582;52.018;6.306;2022-08-11T02:32:31;6.05;;;4.50;;
18899;SDS011;9582;52.018;6.306;2022-08-11T02:35:22;6.32;;;4.60;;
18899;SDS011;9582;52.018;6.306;2022-08-11T02:37:55;7.13;;;4.57;;
18899;SDS011;9582;52.018;6.306;2022-08-11T02:40:37;6.07;;;4.47;;
18899;SDS011;9582;52.018;6.306;2022-08-11T02:43:17;6.22;;;4.68;;
18899;SDS011;9582;52.018;6.306;2022-08-11T02:45:54;5.57;;;4.97;;
18899;SDS011;9582;52.018;6.306;2022-08-11T02:48:35;5.65;;;4.50;;
18899;SDS011;9582;52.018;6.306;2022-08-11T02:51:29;7.53;;;4.75;;
18899;SDS011;9582;52.018;6.306;2022-08-11T02:54:04;6.47;;;5.22;;
18899;SDS011;9582;52.018;6.306;2022-08-11T02:56:41;7.55;;;5.10;;
18899;SDS011;9582;52.018;6.306;2022-08-11T02:59:22;7.70;;;4.93;;
18899;SDS011;9582;52.018;6.306;2022-08-11T03:02:13;7.28;;;5.43;;
18899;SDS011;9582;52.018;6.306;2022-08-11T03:04:54;5.95;;;5.40;;
18899;SDS011;9582;52.018;6.306;2022-08-11T03:07:30;9.23;;;4.93;;
18899;SDS011;9582;52.018;6.306;2022-08-11T03:10:02;6.63;;;5.20;;
18899;SDS011;9582;52.018;6.306;2022-08-11T03:12:39;5.68;;;5.10;;
18899;SDS011;9582;52.018;6.306;2022-08-11T03:15:28;7.70;;;5.68;;
18899;SDS011;9582;52.018;6.306;2022-08-11T03:18:23;5.80;;;5.22;;
18899;SDS011;9582;52.018;6.306;2022-08-11T03:20:56;7.68;;;5.30;;
18899;SDS011;9582;52.018;6.306;2022-08-11T03:23:32;6.15;;;5.40;;
18899;SDS011;9582;52.018;6.306;2022-08-11T03:26:04;8.05;;;5.45;;
18899;SDS011;9582;52.018;6.306;2022-08-11T03:28:42;6.00;;;5.40;;
18899;SDS011;9582;52.018;6.306;2022-08-11T03:31:18;6.38;;;5.53;;
18899;SDS011;9582;52.018;6.306;2022-08-11T03:33:51;7.20;;;5.68;;
18899;SDS011;9582;52.018;6.306;2022-08-11T03:39:31;7.07;;;5.85;;
18899;SDS011;9582;52.018;6.306;2022-08-11T03:42:09;6.97;;;5.88;;
18899;SDS011;9582;52.018;6.306;2022-08-11T03:44:49;7.57;;;6.18;;
18899;SDS011;9582;52.018;6.306;2022-08-11T03:53:35;6.13;;;5.53;;
18899;SDS011;9582;52.018;6.306;2022-08-11T03:59:21;6.90;;;6.03;;
18899;SDS011;9582;52.018;6.306;2022-08-11T04:02:23;9.10;;;5.90;;
18899;SDS011;9582;52.018;6.306;2022-08-11T04:08:07;6.53;;;5.65;;
18899;SDS011;9582;52.018;6.306;2022-08-11T04:20:15;7.88;;;6.80;;
18899;SDS011;9582;52.018;6.306;2022-08-11T04:23:09;8.43;;;6.18;;
18899;SDS011;9582;52.018;6.306;2022-08-11T04:25:52;7.07;;;6.05;;
18899;SDS011;9582;52.018;6.306;2022-08-11T04:28:41;8.98;;;6.93;;
18899;SDS011;9582;52.018;6.306;2022-08-11T04:31:23;8.57;;;6.40;;
18899;SDS011;9582;52.018;6.306;2022-08-11T04:37:10;9.27;;;6.43;;
18899;SDS011;9582;52.018;6.306;2022-08-11T04:43:30;7.18;;;6.47;;
18899;SDS011;9582;52.018;6.306;2022-08-11T04:46:40;7.10;;;6.25;;
18899;SDS011;9582;52.018;6.306;2022-08-11T04:49:30;7.03;;;6.43;;
18899;SDS011;9582;52.018;6.306;2022-08-11T04:52:36;7.85;;;6.18;;
18899;SDS011;9582;52.018;6.306;2022-08-11T04:55:44;7.43;;;6.53;;
18899;SDS011;9582;52.018;6.306;2022-08-11T05:02:32;8.02;;;6.50;;
18899;SDS011;9582;52.018;6.306;2022-08-11T05:05:34;10.63;;;6.18;;
18899;SDS011;9582;52.018;6.306;2022-08-11T05:08:28;8.82;;;6.90;;
18899;SDS011;9582;52.018;6.306;2022-08-11T05:14:31;9.38;;;6.68;;
18899;SDS011;9582;52.018;6.306;2022-08-11T05:17:22;7.75;;;5.88;;
18899;SDS011;9582;52.018;6.306;2022-08-11T05:20:15;10.40;;;6.53;;
18899;SDS011;9582;52.018;6.306;2022-08-11T05:23:03;10.80;;;6.80;;
18899;SDS011;9582;52.018;6.306;2022-08-11T05:25:53;8.73;;;6.55;;
18899;SDS011;9582;52.018;6.306;2022-08-11T05:28:40;10.00;;;6.63;;
18899;SDS011;9582;52.018;6.306;2022-08-11T05:31:31;8.30;;;6.65;;
18899;SDS011;9582;52.018;6.306;2022-08-11T05:34:18;10.50;;;6.60;;
18899;SDS011;9582;52.018;6.306;2022-08-11T05:37:06;6.72;;;6.10;;
18899;SDS011;9582;52.018;6.306;2022-08-11T05:39:40;7.82;;;6.28;;
18899;SDS011;9582;52.018;6.306;2022-08-11T05:42:28;9.82;;;6.18;;
18899;SDS011;9582;52.018;6.306;2022-08-11T05:45:15;11.15;;;6.18;;
18899;SDS011;9582;52.018;6.306;2022-08-11T05:48:01;10.75;;;5.85;;
18899;SDS011;9582;52.018;6.306;2022-08-11T05:50:49;12.55;;;6.15;;
18899;SDS011;9582;52.018;6.306;2022-08-11T05:53:41;6.68;;;4.97;;
18899;SDS011;9582;52.018;6.306;2022-08-11T05:56:29;9.50;;;5.63;;
18899;SDS011;9582;52.018;6.306;2022-08-11T05:58:58;10.60;;;6.13;;
18899;SDS011;9582;52.018;6.306;2022-08-11T06:01:27;6.75;;;5.18;;
18899;SDS011;9582;52.018;6.306;2022-08-11T06:03:56;8.65;;;5.35;;
18899;SDS011;9582;52.018;6.306;2022-08-11T06:06:45;7.95;;;5.07;;
18899;SDS011;9582;52.018;6.306;2022-08-11T06:09:18;6.43;;;4.70;;
18899;SDS011;9582;52.018;6.306;2022-08-11T06:11:50;9.10;;;5.32;;
18899;SDS011;9582;52.018;6.306;2022-08-11T06:14:17;6.70;;;5.65;;
18899;SDS011;9582;52.018;6.306;2022-08-11T06:16:46;5.97;;;4.53;;
18899;SDS011;9582;52.018;6.306;2022-08-11T06:19:13;6.65;;;5.18;;
18899;SDS011;9582;52.018;6.306;2022-08-11T06:21:43;11.38;;;4.93;;
18899;SDS011;9582;52.018;6.306;2022-08-11T06:24:12;7.68;;;5.00;;
18899;SDS011;9582;52.018;6.306;2022-08-11T06:26:39;9.43;;;5.03;;
18899;SDS011;9582;52.018;6.306;2022-08-11T06:29:08;6.22;;;4.40;;
18899;SDS011;9582;52.018;6.306;2022-08-11T06:31:36;6.60;;;3.97;;
18899;SDS011;9582;52.018;6.306;2022-08-11T06:34:06;5.75;;;4.28;;
18899;SDS011;9582;52.018;6.306;2022-08-11T06:36:38;4.32;;;3.92;;
18899;SDS011;9582;52.018;6.306;2022-08-11T06:39:12;7.07;;;4.28;;
18899;SDS011;9582;52.018;6.306;2022-08-11T06:41:47;8.43;;;4.07;;
18899;SDS011;9582;52.018;6.306;2022-08-11T06:44:24;5.32;;;3.97;;
18899;SDS011;9582;52.018;6.306;2022-08-11T06:46:54;4.88;;;3.83;;
18899;SDS011;9582;52.018;6.306;2022-08-11T06:49:34;5.93;;;4.03;;
18899;SDS011;9582;52.018;6.306;2022-08-11T06:52:27;5.47;;;3.90;;
18899;SDS011;9582;52.018;6.306;2022-08-11T06:54:56;7.03;;;4.20;;
18899;SDS011;9582;52.018;6.306;2022-08-11T06:57:31;6.32;;;3.95;;
18899;SDS011;9582;52.018;6.306;2022-08-11T07:00:18;4.97;;;4.10;;
18899;SDS011;9582;52.018;6.306;2022-08-11T07:02:56;4.43;;;4.03;;
18899;SDS011;9582;52.018;6.306;2022-08-11T07:05:27;6.57;;;4.07;;
18899;SDS011;9582;52.018;6.306;2022-08-11T07:08:14;5.32;;;4.20;;
18899;SDS011;9582;52.018;6.306;2022-08-11T07:11:19;6.93;;;3.75;;
18899;SDS011;9582;52.018;6.306;2022-08-11T07:14:22;6.07;;;3.92;;
18899;SDS011;9582;52.018;6.306;2022-08-11T07:17:10;4.20;;;3.80;;
18899;SDS011;9582;52.018;6.306;2022-08-11T07:19:39;4.63;;;3.63;;
18899;SDS011;9582;52.018;6.306;2022-08-11T07:22:26;4.03;;;3.55;;
18899;SDS011;9582;52.018;6.306;2022-08-11T07:25:14;5.72;;;3.65;;
18899;SDS011;9582;52.018;6.306;2022-08-11T07:28:00;3.72;;;3.42;;
18899;SDS011;9582;52.018;6.306;2022-08-11T07:30:46;6.20;;;3.83;;
18899;SDS011;9582;52.018;6.306;2022-08-11T07:33:16;7.10;;;3.30;;
18899;SDS011;9582;52.018;6.306;2022-08-11T07:35:51;6.57;;;3.78;;
18899;SDS011;9582;52.018;6.306;2022-08-11T07:38:21;4.57;;;3.80;;
18899;SDS011;9582;52.018;6.306;2022-08-11T07:41:07;5.00;;;3.50;;
18899;SDS011;9582;52.018;6.306;2022-08-11T07:43:34;4.93;;;3.95;;
18899;SDS011;9582;52.018;6.306;2022-08-11T07:46:01;5.50;;;3.72;;
18899;SDS011;9582;52.018;6.306;2022-08-11T07:48:48;6.95;;;3.65;;
18899;SDS011;9582;52.018;6.306;2022-08-11T07:51:34;5.85;;;3.47;;
18899;SDS011;9582;52.018;6.306;2022-08-11T07:54:19;3.63;;;3.28;;
18899;SDS011;9582;52.018;6.306;2022-08-11T07:56:46;3.80;;;3.40;;
18899;SDS011;9582;52.018;6.306;2022-08-11T07:59:13;4.50;;;3.38;;
18899;SDS011;9582;52.018;6.306;2022-08-11T08:02:00;6.40;;;2.70;;
18899;SDS011;9582;52.018;6.306;2022-08-11T08:04:46;5.38;;;3.05;;
18899;SDS011;9582;52.018;6.306;2022-08-11T08:07:31;7.07;;;3.03;;
18899;SDS011;9582;52.018;6.306;2022-08-11T08:10:15;4.00;;;3.10;;
18899;SDS011;9582;52.018;6.306;2022-08-11T08:13:01;3.67;;;2.78;;
18899;SDS011;9582;52.018;6.306;2022-08-11T08:15:47;5.07;;;3.47;;
18899;SDS011;9582;52.018;6.306;2022-08-11T08:18:32;5.20;;;3.08;;
18899;SDS011;9582;52.018;6.306;2022-08-11T08:21:02;6.07;;;2.83;;
18899;SDS011;9582;52.018;6.306;2022-08-11T08:23:37;3.83;;;2.90;;
18899;SDS011;9582;52.018;6.306;2022-08-11T08:26:04;5.95;;;3.20;;
18899;SDS011;9582;52.018;6.306;2022-08-11T08:28:53;4.88;;;2.70;;
18899;SDS011;9582;52.018;6.306;2022-08-11T08:31:40;5.90;;;3.15;;
18899;SDS011;9582;52.018;6.306;2022-08-11T08:34:06;6.32;;;2.78;;
18899;SDS011;9582;52.018;6.306;2022-08-11T08:36:36;5.25;;;2.50;;
18899;SDS011;9582;52.018;6.306;2022-08-11T08:39:04;4.07;;;2.75;;
18899;SDS011;9582;52.018;6.306;2022-08-11T08:41:31;5.10;;;2.58;;
18899;SDS011;9582;52.018;6.306;2022-08-11T08:44:03;5.32;;;2.90;;
18899;SDS011;9582;52.018;6.306;2022-08-11T08:46:35;6.90;;;2.92;;
18899;SDS011;9582;52.018;6.306;2022-08-11T08:49:06;3.70;;;2.60;;
18899;SDS011;9582;52.018;6.306;2022-08-11T08:51:37;4.15;;;2.95;;
18899;SDS011;9582;52.018;6.306;2022-08-11T08:54:08;5.03;;;2.58;;
18899;SDS011;9582;52.018;6.306;2022-08-11T08:56:38;4.95;;;2.17;;
18899;SDS011;9582;52.018;6.306;2022-08-11T08:59:06;5.63;;;2.90;;
18899;SDS011;9582;52.018;6.306;2022-08-11T09:01:35;5.13;;;2.85;;
18899;SDS011;9582;52.018;6.306;2022-08-11T09:04:07;5.30;;;2.80;;
18899;SDS011;9582;52.018;6.306;2022-08-11T09:06:37;5.28;;;2.70;;
18899;SDS011;9582;52.018;6.306;2022-08-11T09:09:05;6.13;;;2.75;;
18899;SDS011;9582;52.018;6.306;2022-08-11T09:11:33;4.32;;;2.85;;
18899;SDS011;9582;52.018;6.306;2022-08-11T09:14:17;4.45;;;2.30;;
18899;SDS011;9582;52.018;6.306;2022-08-11T09:16:45;6.13;;;2.90;;
18899;SDS011;9582;52.018;6.306;2022-08-11T09:19:14;3.50;;;2.83;;
18899;SDS011;9582;52.018;6.306;2022-08-11T09:21:45;8.00;;;2.80;;
18899;SDS011;9582;52.018;6.306;2022-08-11T09:24:35;5.28;;;2.72;;
18899;SDS011;9582;52.018;6.306;2022-08-11T09:27:20;3.85;;;2.53;;
18899;SDS011;9582;52.018;6.306;2022-08-11T09:29:48;4.85;;;2.90;;
18899;SDS011;9582;52.018;6.306;2022-08-11T09:32:18;3.22;;;2.85;;
18899;SDS011;9582;52.018;6.306;2022-08-11T09:34:45;5.35;;;2.92;;
18899;SDS011;9582;52.018;6.306;2022-08-11T09:37:17;5.53;;;2.70;;
18899;SDS011;9582;52.018;6.306;2022-08-11T09:40:01;8.13;;;2.90;;
18899;SDS011;9582;52.018;6.306;2022-08-11T09:42:46;8.20;;;2.78;;
18899;SDS011;9582;52.018;6.306;2022-08-11T09:45:31;5.07;;;2.50;;
18899;SDS011;9582;52.018;6.306;2022-08-11T09:47:59;6.72;;;2.97;;
18899;SDS011;9582;52.018;6.306;2022-08-11T09:50:31;3.15;;;2.38;;
18899;SDS011;9582;52.018;6.306;2022-08-11T09:53:03;4.25;;;2.72;;
18899;SDS011;9582;52.018;6.306;2022-08-11T09:55:31;4.93;;;3.00;;
18899;SDS011;9582;52.018;6.306;2022-08-11T09:57:58;4.88;;;2.40;;
18899;SDS011;9582;52.018;6.306;2022-08-11T10:00:42;4.93;;;2.60;;
18899;SDS011;9582;52.018;6.306;2022-08-11T10:03:12;5.00;;;2.30;;
18899;SDS011;9582;52.018;6.306;2022-08-11T10:05:42;6.60;;;2.70;;
18899;SDS011;9582;52.018;6.306;2022-08-11T10:08:29;4.78;;;2.58;;
18899;SDS011;9582;52.018;6.306;2022-08-11T10:10:57;7.20;;;2.70;;
18899;SDS011;9582;52.018;6.306;2022-08-11T10:13:28;3.85;;;2.15;;
18899;SDS011;9582;52.018;6.306;2022-08-11T10:16:18;4.15;;;2.63;;
18899;SDS011;9582;52.018;6.306;2022-08-11T10:18:49;4.68;;;2.65;;
18899;SDS011;9582;52.018;6.306;2022-08-11T10:21:22;3.95;;;2.30;;
18899;SDS011;9582;52.018;6.306;2022-08-11T10:23:54;4.45;;;2.10;;
18899;SDS011;9582;52.018;6.306;2022-08-11T10:26:40;3.83;;;2.22;;
18899;SDS011;9582;52.018;6.306;2022-08-11T10:29:18;5.45;;;2.28;;
18899;SDS011;9582;52.018;6.306;2022-08-11T10:32:04;2.60;;;2.40;;
18899;SDS011;9582;52.018;6.306;2022-08-11T10:34:46;2.40;;;2.20;;
18899;SDS011;9582;52.018;6.306;2022-08-11T10:37:14;5.35;;;2.05;;
18899;SDS011;9582;52.018;6.306;2022-08-11T10:39:43;3.63;;;2.72;;
18899;SDS011;9582;52.018;6.306;2022-08-11T10:42:11;5.63;;;2.10;;
18899;SDS011;9582;52.018;6.306;2022-08-11T10:44:56;2.30;;;2.10;;
18899;SDS011;9582;52.018;6.306;2022-08-11T10:47:25;4.00;;;2.30;;
18899;SDS011;9582;52.018;6.306;2022-08-11T10:50:02;3.17;;;2.40;;
18899;SDS011;9582;52.018;6.306;2022-08-11T10:52:50;5.10;;;2.10;;
18899;SDS011;9582;52.018;6.306;2022-08-11T10:55:37;4.55;;;2.25;;
18899;SDS011;9582;52.018;6.306;2022-08-11T10:58:25;4.00;;;2.30;;
18899;SDS011;9582;52.018;6.306;2022-08-11T11:01:09;2.30;;;2.10;;
18899;SDS011;9582;52.018;6.306;2022-08-11T11:03:37;7.07;;;2.50;;
18899;SDS011;9582;52.018;6.306;2022-08-11T11:06:05;4.30;;;2.17;;
18899;SDS011;9582;52.018;6.306;2022-08-11T11:08:39;4.82;;;2.42;;
18899;SDS011;9582;52.018;6.306;2022-08-11T11:11:20;2.95;;;2.30;;
18899;SDS011;9582;52.018;6.306;2022-08-11T11:14:08;3.92;;;2.40;;
18899;SDS011;9582;52.018;6.306;2022-08-11T11:16:55;3.55;;;2.17;;
18899;SDS011;9582;52.018;6.306;2022-08-11T11:19:41;3.78;;;2.00;;
18899;SDS011;9582;52.018;6.306;2022-08-11T11:22:09;3.75;;;2.40;;
18899;SDS011;9582;52.018;6.306;2022-08-11T11:24:59;4.53;;;2.17;;
18899;SDS011;9582;52.018;6.306;2022-08-11T11:27:35;4.50;;;2.20;;
18899;SDS011;9582;52.018;6.306;2022-08-11T11:30:13;2.88;;;2.10;;
18899;SDS011;9582;52.018;6.306;2022-08-11T11:32:43;4.70;;;2.17;;
18899;SDS011;9582;52.018;6.306;2022-08-11T11:35:29;3.88;;;2.10;;
18899;SDS011;9582;52.018;6.306;2022-08-11T11:38:08;2.78;;;2.30;;
18899;SDS011;9582;52.018;6.306;2022-08-11T11:40:35;2.60;;;2.00;;
18899;SDS011;9582;52.018;6.306;2022-08-11T11:43:06;4.57;;;2.40;;
18899;SDS011;9582;52.018;6.306;2022-08-11T11:45:33;5.13;;;2.30;;
18899;SDS011;9582;52.018;6.306;2022-08-11T11:48:00;6.32;;;2.20;;
18899;SDS011;9582;52.018;6.306;2022-08-11T11:50:28;2.78;;;1.90;;
18899;SDS011;9582;52.018;6.306;2022-08-11T11:52:57;6.07;;;2.30;;
18899;SDS011;9582;52.018;6.306;2022-08-11T11:55:25;3.97;;;2.30;;
18899;SDS011;9582;52.018;6.306;2022-08-11T11:57:53;2.97;;;2.22;;
18899;SDS011;9582;52.018;6.306;2022-08-11T12:00:40;4.30;;;1.80;;
18899;SDS011;9582;52.018;6.306;2022-08-11T12:03:26;2.20;;;1.88;;
18899;SDS011;9582;52.018;6.306;2022-08-11T12:05:54;4.10;;;2.20;;
18899;SDS011;9582;52.018;6.306;2022-08-11T12:08:22;3.95;;;2.08;;
18899;SDS011;9582;52.018;6.306;2022-08-11T12:10:51;3.45;;;2.13;;
18899;SDS011;9582;52.018;6.306;2022-08-11T12:13:40;3.30;;;2.22;;
18899;SDS011;9582;52.018;6.306;2022-08-11T12:16:08;3.22;;;2.20;;
18899;SDS011;9582;52.018;6.306;2022-08-11T12:18:36;2.90;;;2.22;;
18899;SDS011;9582;52.018;6.306;2022-08-11T12:21:05;4.78;;;2.30;;
18899;SDS011;9582;52.018;6.306;2022-08-11T12:23:33;4.00;;;2.08;;
18899;SDS011;9582;52.018;6.306;2022-08-11T12:26:18;2.55;;;2.30;;
18899;SDS011;9582;52.018;6.306;2022-08-11T12:29:18;5.88;;;2.08;;
18899;SDS011;9582;52.018;6.306;2022-08-11T12:31:49;3.20;;;1.90;;
18899;SDS011;9582;52.018;6.306;2022-08-11T12:34:17;3.80;;;2.20;;
18899;SDS011;9582;52.018;6.306;2022-08-11T12:36:45;4.20;;;2.03;;
18899;SDS011;9582;52.018;6.306;2022-08-11T12:39:18;3.15;;;2.20;;
18899;SDS011;9582;52.018;6.306;2022-08-11T12:42:07;2.60;;;2.10;;
18899;SDS011;9582;52.018;6.306;2022-08-11T12:44:49;3.30;;;2.35;;
18899;SDS011;9582;52.018;6.306;2022-08-11T12:47:37;4.97;;;2.30;;
18899;SDS011;9582;52.018;6.306;2022-08-11T12:50:24;4.47;;;2.60;;
18899;SDS011;9582;52.018;6.306;2022-08-11T12:53:08;3.28;;;2.50;;
18899;SDS011;9582;52.018;6.306;2022-08-11T12:55:37;3.80;;;2.03;;
18899;SDS011;9582;52.018;6.306;2022-08-11T12:58:31;2.28;;;2.00;;
18899;SDS011;9582;52.018;6.306;2022-08-11T13:00:58;4.05;;;2.13;;
18899;SDS011;9582;52.018;6.306;2022-08-11T13:03:43;3.28;;;2.22;;
18899;SDS011;9582;52.018;6.306;2022-08-11T13:06:28;3.45;;;2.13;;
18899;SDS011;9582;52.018;6.306;2022-08-11T13:08:55;3.58;;;2.22;;
18899;SDS011;9582;52.018;6.306;2022-08-11T13:11:24;2.55;;;2.30;;
18899;SDS011;9582;52.018;6.306;2022-08-11T13:14:09;3.20;;;1.98;;
18899;SDS011;9582;52.018;6.306;2022-08-11T13:16:37;4.80;;;2.30;;
18899;SDS011;9582;52.018;6.306;2022-08-11T13:19:19;3.90;;;2.20;;
18899;SDS011;9582;52.018;6.306;2022-08-11T13:21:46;3.33;;;2.30;;
18899;SDS011;9582;52.018;6.306;2022-08-11T13:24:14;4.32;;;2.25;;
18899;SDS011;9582;52.018;6.306;2022-08-11T13:26:42;6.13;;;2.28;;
18899;SDS011;9582;52.018;6.306;2022-08-11T13:29:09;4.28;;;2.28;;
18899;SDS011;9582;52.018;6.306;2022-08-11T13:31:36;4.22;;;2.10;;
18899;SDS011;9582;52.018;6.306;2022-08-11T13:34:06;5.90;;;2.33;;
18899;SDS011;9582;52.018;6.306;2022-08-11T13:36:36;3.20;;;2.30;;
18899;SDS011;9582;52.018;6.306;2022-08-11T13:39:03;4.07;;;2.22;;
18899;SDS011;9582;52.018;6.306;2022-08-11T13:41:30;2.97;;;2.38;;
18899;SDS011;9582;52.018;6.306;2022-08-11T13:44:03;6.68;;;2.30;;
18899;SDS011;9582;52.018;6.306;2022-08-11T13:46:31;3.22;;;1.85;;
18899;SDS011;9582;52.018;6.306;2022-08-11T13:48:59;4.20;;;2.22;;
18899;SDS011;9582;52.018;6.306;2022-08-11T13:51:27;2.60;;;2.22;;
18899;SDS011;9582;52.018;6.306;2022-08-11T13:54:00;2.78;;;2.20;;
18899;SDS011;9582;52.018;6.306;2022-08-11T13:56:28;2.97;;;2.20;;
18899;SDS011;9582;52.018;6.306;2022-08-11T13:58:56;2.28;;;2.08;;
18899;SDS011;9582;52.018;6.306;2022-08-11T14:01:25;3.95;;;2.30;;
18899;SDS011;9582;52.018;6.306;2022-08-11T14:03:54;8.27;;;2.38;;
18899;SDS011;9582;52.018;6.306;2022-08-11T14:06:24;2.05;;;1.85;;
18899;SDS011;9582;52.018;6.306;2022-08-11T14:08:51;6.15;;;2.10;;
18899;SDS011;9582;52.018;6.306;2022-08-11T14:11:20;2.15;;;1.77;;
18899;SDS011;9582;52.018;6.306;2022-08-11T14:14:05;3.42;;;2.00;;
18899;SDS011;9582;52.018;6.306;2022-08-11T14:16:38;2.65;;;2.00;;
18899;SDS011;9582;52.018;6.306;2022-08-11T14:19:08;2.05;;;1.85;;
18899;SDS011;9582;52.018;6.306;2022-08-11T14:21:39;3.17;;;1.90;;
18899;SDS011;9582;52.018;6.306;2022-08-11T14:24:27;3.08;;;2.10;;
18899;SDS011;9582;52.018;6.306;2022-08-11T14:26:56;4.13;;;2.20;;
18899;SDS011;9582;52.018;6.306;2022-08-11T14:29:24;3.58;;;2.13;;
18899;SDS011;9582;52.018;6.306;2022-08-11T14:31:53;3.13;;;2.10;;
18899;SDS011;9582;52.018;6.306;2022-08-11T14:34:21;1.90;;;1.70;;
18899;SDS011;9582;52.018;6.306;2022-08-11T14:36:52;3.28;;;1.70;;
18899;SDS011;9582;52.018;6.306;2022-08-11T14:39:21;2.00;;;1.67;;
18899;SDS011;9582;52.018;6.306;2022-08-11T14:41:51;3.58;;;2.08;;
18899;SDS011;9582;52.018;6.306;2022-08-11T14:44:39;3.10;;;2.10;;
18899;SDS011;9582;52.018;6.306;2022-08-11T14:47:25;5.25;;;2.40;;
18899;SDS011;9582;52.018;6.306;2022-08-11T14:49:54;3.97;;;2.00;;
18899;SDS011;9582;52.018;6.306;2022-08-11T14:52:23;3.08;;;2.10;;
18899;SDS011;9582;52.018;6.306;2022-08-11T14:54:50;2.50;;;2.22;;
18899;SDS011;9582;52.018;6.306;2022-08-11T14:57:36;2.03;;;1.92;;
18899;SDS011;9582;52.018;6.306;2022-08-11T15:00:06;4.40;;;1.88;;
18899;SDS011;9582;52.018;6.306;2022-08-11T15:02:36;2.95;;;2.35;;
18899;SDS011;9582;52.018;6.306;2022-08-11T15:05:22;2.25;;;1.90;;
18899;SDS011;9582;52.018;6.306;2022-08-11T15:07:50;2.13;;;1.92;;
18899;SDS011;9582;52.018;6.306;2022-08-11T15:10:18;4.68;;;2.00;;
18899;SDS011;9582;52.018;6.306;2022-08-11T15:12:45;2.63;;;2.00;;
18899;SDS011;9582;52.018;6.306;2022-08-11T15:15:15;2.53;;;1.88;;
18899;SDS011;9582;52.018;6.306;2022-08-11T15:18:01;1.92;;;1.83;;
18899;SDS011;9582;52.018;6.306;2022-08-11T15:20:30;2.88;;;2.10;;
18899;SDS011;9582;52.018;6.306;2022-08-11T15:23:14;3.25;;;2.28;;
18899;SDS011;9582;52.018;6.306;2022-08-11T15:25:59;3.72;;;2.08;;
18899;SDS011;9582;52.018;6.306;2022-08-11T15:28:28;2.55;;;1.60;;
18899;SDS011;9582;52.018;6.306;2022-08-11T15:31:17;2.50;;;1.80;;
18899;SDS011;9582;52.018;6.306;2022-08-11T15:34:03;3.55;;;2.15;;
18899;SDS011;9582;52.018;6.306;2022-08-11T15:36:48;6.28;;;2.35;;
18899;SDS011;9582;52.018;6.306;2022-08-11T15:39:40;2.35;;;1.92;;
18899;SDS011;9582;52.018;6.306;2022-08-11T15:42:26;4.50;;;2.00;;
18899;SDS011;9582;52.018;6.306;2022-08-11T15:45:11;3.35;;;2.00;;
18899;SDS011;9582;52.018;6.306;2022-08-11T15:48:00;3.47;;;2.00;;
18899;SDS011;9582;52.018;6.306;2022-08-11T15:50:31;2.20;;;1.98;;
18899;SDS011;9582;52.018;6.306;2022-08-11T15:53:05;1.92;;;1.75;;
18899;SDS011;9582;52.018;6.306;2022-08-11T15:55:36;2.28;;;1.80;;
18899;SDS011;9582;52.018;6.306;2022-08-11T15:58:06;3.80;;;1.77;;
18899;SDS011;9582;52.018;6.306;2022-08-11T16:00:52;3.80;;;1.98;;
18899;SDS011;9582;52.018;6.306;2022-08-11T16:03:41;4.03;;;2.20;;
18899;SDS011;9582;52.018;6.306;2022-08-11T16:06:42;3.88;;;2.10;;
18899;SDS011;9582;52.018;6.306;2022-08-11T16:09:13;2.33;;;2.13;;
18899;SDS011;9582;52.018;6.306;2022-08-11T16:11:41;2.90;;;1.80;;
18899;SDS011;9582;52.018;6.306;2022-08-11T16:14:09;3.60;;;2.00;;
18899;SDS011;9582;52.018;6.306;2022-08-11T16:16:55;3.55;;;1.92;;
18899;SDS011;9582;52.018;6.306;2022-08-11T16:19:25;2.53;;;2.20;;
18899;SDS011;9582;52.018;6.306;2022-08-11T16:21:59;3.33;;;1.90;;
18899;SDS011;9582;52.018;6.306;2022-08-11T16:24:29;3.83;;;1.90;;
18899;SDS011;9582;52.018;6.306;2022-08-11T16:26:57;2.58;;;1.70;;
18899;SDS011;9582;52.018;6.306;2022-08-11T16:29:24;4.95;;;2.13;;
18899;SDS011;9582;52.018;6.306;2022-08-11T16:31:55;3.80;;;1.85;;
18899;SDS011;9582;52.018;6.306;2022-08-11T16:34:43;3.90;;;2.00;;
18899;SDS011;9582;52.018;6.306;2022-08-11T16:37:30;2.47;;;2.05;;
18899;SDS011;9582;52.018;6.306;2022-08-11T16:40:16;4.32;;;2.20;;
18899;SDS011;9582;52.018;6.306;2022-08-11T16:42:47;3.80;;;1.92;;
18899;SDS011;9582;52.018;6.306;2022-08-11T16:45:33;3.47;;;1.83;;
18899;SDS011;9582;52.018;6.306;2022-08-11T16:48:19;3.72;;;1.90;;
18899;SDS011;9582;52.018;6.306;2022-08-11T16:50:48;2.63;;;1.80;;
18899;SDS011;9582;52.018;6.306;2022-08-11T16:53:15;3.70;;;2.05;;
18899;SDS011;9582;52.018;6.306;2022-08-11T16:55:42;3.35;;;1.90;;
18899;SDS011;9582;52.018;6.306;2022-08-11T16:58:11;4.93;;;1.83;;
18899;SDS011;9582;52.018;6.306;2022-08-11T17:00:57;4.15;;;1.92;;